x

Dunkirk, Ny (dbln6) Weather Station

12:00am - Sun 5th Jul 2015 All times are CDT. -5 hours from GMT.

  • Wind
    7mph, 9mph gusts
  • Air Temp 63°f
  • Sea Pressure 1018.5mb
  • Dunkirk, Ny
  • Dunkirk, Ny

More Historic Weather Station data

Upgrade to MSW Pro to gain access to the past 30 days of data for over 8000 Wavebouys and Weather Stations around the globe.

Join Pro

Comparision Forecast

View Surf forecast
   
Sun 07/05 12:00am 7 9 mph 1018.5mb 63f
Sat 07/04 11:00pm 6 9 mph 1017.8mb 64f
10:00pm 6 8 mph 1017.2mb 64f
9:00pm 6 9 mph 1016.6mb 65f
8:00pm 6 7 mph 1016.1mb 67f
7:00pm 9 13 mph 1015.7mb 68f
6:00pm 9 11 mph 1015.4mb 68f
5:00pm 10 13 mph 1015.2mb 68f
4:00pm 9 11 mph 1015.2mb 68f
3:00pm 10 11 mph 1015.1mb 68f
2:00pm 9 10 mph 1014.9mb 67f
1:00pm 8 9 mph 1015mb 67f
12:00pm 7 8 mph 1014.8mb 65f
11:00am 3 5 mph 1014.8mb 65f
10:00am 3 5 mph 1014.4mb 63f
9:00am 5 6 mph 1014.2mb 63f
8:00am 10 11 mph 1013.7mb 63f
7:00am 3 5 mph 1013.4mb 63f
6:00am 8 9 mph 1012.8mb 63f
5:00am 2 3 mph 1012.6mb 62f
4:00am 3 5 mph 1012.4mb 61f
3:00am 1 2 mph 1012.2mb 61f
2:00am 1 2 mph 1012.3mb 64f
1:00am 6 7 mph 1012.4mb 65f
12:00am 6 7 mph 1012.5mb 64f
Fri 07/03 11:00pm 7 8 mph 1012.8mb 66f
10:00pm 6 7 mph 1013.2mb 66f
9:00pm 10 11 mph 1013mb 67f
8:00pm 9 10 mph 1012.8mb 67f
7:00pm 8 9 mph 1013mb 67f
6:00pm  -  2 mph 1013.3mb 67f
5:00pm 7 8 mph 1013.4mb 67f
4:00pm 9
mph
1013.7mb 67f
3:00pm 9 10 mph 1014.5mb 66f
2:00pm 11 13 mph 1014.8mb 65f
1:00pm 13 14 mph 1015mb 65f
12:00pm 13 14 mph 1015.3mb 64f
11:00am 11 13 mph 1015.7mb 63f
10:00am 8 9 mph 1016.3mb 63f
9:00am 6
mph
1016.8mb 63f
8:00am 5 6 mph 1016.7mb 63f
7:00am 5 6 mph 1016.5mb 61f
6:00am 3 6 mph 1016.4mb 57f
5:00am 5 6 mph 1016.4mb 55f
4:00am 5 6 mph 1016.3mb 56f
3:00am 6 7 mph 1015.8mb 56f
2:00am 3
mph
1015.7mb 58f
1:00am 2 3 mph 1015.9mb 59f
12:00am  -  1 mph 1015.8mb 60f
Thu 07/02 11:00pm 5 6 mph 1015.4mb 60f
10:00pm 6
mph
1015.6mb 60f
9:00pm 5 6 mph 1015.2mb 64f
8:00pm 2 3 mph 1014.8mb 66f
7:00pm 3 5 mph 1014.6mb 66f
6:00pm 3 5 mph 1014.6mb 66f
5:00pm 2
mph
1014.9mb 66f
4:00pm 7
mph
1014.9mb 65f
3:00pm 5 6 mph 1015.1mb 64f
2:00pm 5 6 mph 1015.4mb 64f
1:00pm 9
mph
1015.7mb 63f
12:00pm 8 9 mph 1015.8mb 62f
11:00am 10 11 mph 1015.6mb 61f
10:00am 11 13 mph 1015.2mb 61f
9:00am 9 10 mph 1015.2mb 61f
8:00am 9 10 mph 1015mb 61f
7:00am 10 13 mph 1014.6mb 60f
6:00am 9 11 mph 1014.3mb 61f
5:00am 9 10 mph 1014.3mb 62f
4:00am 5 6 mph 1013.9mb 62f
3:00am 7 8 mph 1013.4mb 63f
2:00am 7 8 mph 1013.7mb 63f
1:00am 3 5 mph 1014mb 63f
12:00am 6
mph
1014mb 63f
Wed 07/01 11:00pm 5 7 mph 1014mb 64f
10:00pm 6 10 mph 1013.7mb 65f
9:00pm 10 13 mph 1013.2mb 64f
8:00pm 13 16 mph 1012.5mb 64f
7:00pm 17 21 mph 1011.8mb 65f
6:00pm 17 23 mph 1011.2mb 66f
5:00pm 20 24 mph 1010.9mb 66f
4:00pm 21 26 mph 1010.5mb 66f
3:00pm 22 28 mph 1010.5mb 66f
2:00pm 25 29 mph 1010.3mb 65f
1:00pm 25 29 mph 1010.2mb 64f
12:00pm 24 29 mph 1009.8mb 64f
11:00am 17 23 mph 1009.8mb 63f
10:00am 17 21 mph 1009.1mb 62f
9:00am 16 22 mph 1008.3mb 63f
8:00am 17 22 mph 1007.9mb 63f
7:00am 16 22 mph 1007.4mb 64f